Time;durP1;ratioP1;P1;durP2;ratioP2;P2;SDS_P1;SDS_P2;PMS_P1;PMS_P2;Temp;Humidity;BMP_temperature;BMP_pressure;BME280_temperature;BME280_humidity;BME280_pressure;Samples;Min_cycle;Max_cycle;Signal;HPM_P1;HPM_P2
2023/12/18 00:01:34;;;;;;;21.23;7.43;;;;;;;;;;4981724;28;20030;-67
2023/12/18 00:04:07;;;;;;;19.20;7.55;;;;;;;;;;4973318;28;20023;-67
2023/12/18 00:06:32;;;;;;;21.08;7.40;;;;;;;;;;4976532;28;20053;-67
2023/12/18 00:08:57;;;;;;;22.13;7.63;;;;;;;;;;4978729;28;20054;-67
2023/12/18 00:11:22;;;;;;;14.13;7.10;;;;;;;;;;4980200;28;20211;-67
2023/12/18 00:13:47;;;;;;;13.73;7.10;;;;;;;;;;4978488;28;20269;-67
2023/12/18 00:16:13;;;;;;;17.80;7.28;;;;;;;;;;4979782;28;20258;-67
2023/12/18 00:18:38;;;;;;;13.70;7.13;;;;;;;;;;4981405;28;20026;-67
2023/12/18 00:21:03;;;;;;;15.80;6.55;;;;;;;;;;4999324;28;20780;-67
2023/12/18 00:23:28;;;;;;;16.20;6.85;;;;;;;;;;4980202;28;20119;-68
2023/12/18 00:25:54;;;;;;;15.35;6.53;;;;;;;;;;4979389;28;20014;-68
2023/12/18 00:28:19;;;;;;;18.90;6.97;;;;;;;;;;4982469;28;20013;-69
2023/12/18 00:30:45;;;;;;;18.13;7.47;;;;;;;;;;4980981;28;20020;-68
2023/12/18 00:33:10;;;;;;;15.63;5.80;;;;;;;;;;4974319;28;20755;-68
2023/12/18 00:35:35;;;;;;;18.63;6.75;;;;;;;;;;4982074;28;20029;-68
2023/12/18 00:38:00;;;;;;;15.50;6.43;;;;;;;;;;4979537;28;20050;-69
2023/12/18 00:40:25;;;;;;;18.57;7.33;;;;;;;;;;5025105;28;20279;-68
2023/12/18 00:42:50;;;;;;;16.07;6.87;;;;;;;;;;4976007;28;20296;-68
2023/12/18 00:45:16;;;;;;;15.27;6.28;;;;;;;;;;4995130;28;20674;-68
2023/12/18 00:47:41;;;;;;;15.07;6.63;;;;;;;;;;4978660;28;20037;-69
2023/12/18 00:50:09;;;;;;;14.10;7.07;;;;;;;;;;4980992;28;20046;-69
2023/12/18 00:52:34;;;;;;;14.10;6.78;;;;;;;;;;4994331;28;20019;-69
2023/12/18 00:55:00;;;;;;;16.25;6.90;;;;;;;;;;4988170;28;20022;-68
2023/12/18 00:57:25;;;;;;;16.40;6.40;;;;;;;;;;4981154;28;20034;-68
2023/12/18 00:59:50;;;;;;;12.43;6.28;;;;;;;;;;4987228;28;20299;-68
2023/12/18 01:02:15;;;;;;;15.13;6.87;;;;;;;;;;5000854;28;20026;-68
2023/12/18 01:04:40;;;;;;;12.13;6.37;;;;;;;;;;5014021;28;20254;-69
2023/12/18 01:07:05;;;;;;;10.05;5.70;;;;;;;;;;4978892;28;20274;-69
2023/12/18 01:09:31;;;;;;;16.50;6.33;;;;;;;;;;4975437;28;20061;-69
2023/12/18 01:11:56;;;;;;;11.80;6.20;;;;;;;;;;4986325;28;21235;-69
2023/12/18 01:14:21;;;;;;;14.40;6.23;;;;;;;;;;4980694;28;20270;-69
2023/12/18 01:16:46;;;;;;;19.25;6.75;;;;;;;;;;4986952;28;20280;-69
2023/12/18 01:19:11;;;;;;;18.35;5.95;;;;;;;;;;4982261;28;20045;-69
2023/12/18 01:21:37;;;;;;;15.80;6.88;;;;;;;;;;4980730;28;20350;-69
2023/12/18 01:24:02;;;;;;;14.57;5.30;;;;;;;;;;4976986;28;20496;-69
2023/12/18 01:26:27;;;;;;;16.80;6.68;;;;;;;;;;4978907;28;20266;-69
2023/12/18 01:28:52;;;;;;;15.68;5.50;;;;;;;;;;4991825;28;20022;-69
2023/12/18 01:31:21;;;;;;;15.95;6.65;;;;;;;;;;4987038;28;20068;-69
2023/12/18 01:33:46;;;;;;;14.30;6.20;;;;;;;;;;4978569;28;20282;-69
2023/12/18 01:36:12;;;;;;;22.67;6.57;;;;;;;;;;4974134;28;20541;-68
2023/12/18 01:38:37;;;;;;;13.43;6.20;;;;;;;;;;4979137;28;20033;-68
2023/12/18 01:41:02;;;;;;;19.43;6.47;;;;;;;;;;4981307;28;20026;-69
2023/12/18 01:43:27;;;;;;;15.77;6.57;;;;;;;;;;4975574;28;20278;-69
2023/12/18 01:45:55;;;;;;;13.45;6.63;;;;;;;;;;4980293;28;20018;-68
2023/12/18 01:48:20;;;;;;;12.55;6.00;;;;;;;;;;4980337;28;20550;-69
2023/12/18 01:50:45;;;;;;;13.15;6.10;;;;;;;;;;4985111;28;20030;-69
2023/12/18 01:53:11;;;;;;;23.05;6.25;;;;;;;;;;4979756;28;20077;-69
2023/12/18 01:55:36;;;;;;;16.80;6.20;;;;;;;;;;4980848;28;20076;-68
2023/12/18 01:58:01;;;;;;;16.95;6.50;;;;;;;;;;4975090;28;20114;-68
2023/12/18 02:00:27;;;;;;;15.80;6.00;;;;;;;;;;4985317;28;20461;-69
2023/12/18 02:02:52;;;;;;;20.75;6.35;;;;;;;;;;4966951;28;20401;-68
2023/12/18 02:05:17;;;;;;;17.88;6.60;;;;;;;;;;4980667;28;20034;-68
2023/12/18 02:07:42;;;;;;;17.88;6.00;;;;;;;;;;4980009;28;20095;-69
2023/12/18 02:10:08;;;;;;;15.20;5.72;;;;;;;;;;4973749;28;20405;-68
2023/12/18 02:12:33;;;;;;;16.73;6.00;;;;;;;;;;4983306;28;20022;-68
2023/12/18 02:14:58;;;;;;;20.23;6.85;;;;;;;;;;4984562;28;20026;-68
2023/12/18 02:17:23;;;;;;;23.58;5.93;;;;;;;;;;4988870;28;20558;-69
2023/12/18 02:19:49;;;;;;;13.07;5.82;;;;;;;;;;4990609;28;20035;-69
2023/12/18 02:22:14;;;;;;;14.13;6.30;;;;;;;;;;4985964;28;20027;-69
2023/12/18 02:24:39;;;;;;;13.23;5.83;;;;;;;;;;4984255;28;20296;-69
2023/12/18 02:27:04;;;;;;;14.18;5.95;;;;;;;;;;4975906;28;20261;-69
2023/12/18 02:29:29;;;;;;;15.00;6.27;;;;;;;;;;4979221;28;20428;-69
2023/12/18 02:31:54;;;;;;;17.65;5.78;;;;;;;;;;4974329;28;20265;-69
2023/12/18 02:34:20;;;;;;;14.68;6.18;;;;;;;;;;4976866;28;20018;-68
2023/12/18 02:36:45;;;;;;;18.20;5.85;;;;;;;;;;4983925;28;20030;-68
2023/12/18 02:39:10;;;;;;;14.13;5.60;;;;;;;;;;4983432;28;20050;-68
2023/12/18 02:41:35;;;;;;;12.18;5.30;;;;;;;;;;4975682;28;20381;-69
2023/12/18 02:44:01;;;;;;;20.88;6.65;;;;;;;;;;4980619;28;20105;-67
2023/12/18 02:46:26;;;;;;;21.17;6.28;;;;;;;;;;4974100;28;20195;-67
2023/12/18 02:48:51;;;;;;;12.55;6.32;;;;;;;;;;4977908;28;20072;-69
2023/12/18 02:51:16;;;;;;;17.07;6.63;;;;;;;;;;4984236;28;20026;-69
2023/12/18 02:53:41;;;;;;;17.50;6.23;;;;;;;;;;4970546;28;20272;-69
2023/12/18 02:56:06;;;;;;;14.20;5.87;;;;;;;;;;4987239;28;20270;-68
2023/12/18 02:58:32;;;;;;;14.65;6.30;;;;;;;;;;4978807;28;20358;-69
2023/12/18 03:00:57;;;;;;;16.03;6.13;;;;;;;;;;4976840;28;20049;-68
2023/12/18 03:03:22;;;;;;;15.60;5.77;;;;;;;;;;4987710;28;20254;-68
2023/12/18 03:05:47;;;;;;;14.32;5.93;;;;;;;;;;4973883;28;20282;-68
2023/12/18 03:08:12;;;;;;;14.00;5.33;;;;;;;;;;4984427;28;20160;-69
2023/12/18 03:10:38;;;;;;;13.30;5.80;;;;;;;;;;4980443;28;20640;-69
2023/12/18 03:13:03;;;;;;;18.50;5.35;;;;;;;;;;4987952;28;20036;-67
2023/12/18 03:15:28;;;;;;;15.98;5.75;;;;;;;;;;4981380;28;20405;-67
2023/12/18 03:17:53;;;;;;;17.85;6.13;;;;;;;;;;4982269;28;20038;-67
2023/12/18 03:20:18;;;;;;;18.17;6.03;;;;;;;;;;4984464;28;20042;-68
2023/12/18 03:22:44;;;;;;;17.07;5.57;;;;;;;;;;4976685;28;20303;-67
2023/12/18 03:25:09;;;;;;;14.52;5.22;;;;;;;;;;4988418;28;20585;-67
2023/12/18 03:27:34;;;;;;;17.58;5.38;;;;;;;;;;4987423;28;20078;-67
2023/12/18 03:29:59;;;;;;;14.10;5.50;;;;;;;;;;4985023;28;20099;-67
2023/12/18 03:32:24;;;;;;;12.52;5.57;;;;;;;;;;4972386;28;20281;-68
2023/12/18 03:34:50;;;;;;;11.90;5.60;;;;;;;;;;4979337;28;20052;-67
2023/12/18 03:37:15;;;;;;;11.90;5.90;;;;;;;;;;4972734;28;20032;-67
2023/12/18 03:39:40;;;;;;;17.93;6.13;;;;;;;;;;4980432;28;20109;-67
2023/12/18 03:42:05;;;;;;;15.70;5.60;;;;;;;;;;4981953;28;20281;-67
2023/12/18 03:44:30;;;;;;;11.57;5.53;;;;;;;;;;4988868;28;20282;-67
2023/12/18 03:46:57;;;;;;;11.93;5.83;;;;;;;;;;4977397;28;20019;-67
2023/12/18 03:49:22;;;;;;;11.65;4.60;;;;;;;;;;4987103;28;20356;-68
2023/12/18 03:51:48;;;;;;;24.58;5.50;;;;;;;;;;4984690;28;20118;-67
2023/12/18 03:54:13;;;;;;;15.25;5.00;;;;;;;;;;4990739;28;20105;-67
2023/12/18 03:56:38;;;;;;;19.35;6.32;;;;;;;;;;4988976;28;20477;-68
2023/12/18 03:59:03;;;;;;;16.15;5.40;;;;;;;;;;4984791;28;20035;-67
2023/12/18 04:01:32;;;;;;;15.57;5.55;;;;;;;;;;4988062;28;20084;-67
2023/12/18 04:03:57;;;;;;;12.23;5.60;;;;;;;;;;4983363;28;20031;-67
2023/12/18 04:06:22;;;;;;;16.00;5.75;;;;;;;;;;4968800;28;20132;-67
2023/12/18 04:08:48;;;;;;;15.23;6.17;;;;;;;;;;4975862;28;20377;-67
2023/12/18 04:11:14;;;;;;;12.50;5.78;;;;;;;;;;4973194;28;20282;-67
2023/12/18 04:13:39;;;;;;;11.75;5.95;;;;;;;;;;4983066;28;20030;-67
2023/12/18 04:16:04;;;;;;;17.30;6.18;;;;;;;;;;4984862;28;20032;-68
2023/12/18 04:18:30;;;;;;;14.73;5.93;;;;;;;;;;4986583;28;20062;-68
2023/12/18 04:20:55;;;;;;;12.83;5.63;;;;;;;;;;4973116;28;20022;-67
2023/12/18 04:23:20;;;;;;;11.77;5.93;;;;;;;;;;4968954;28;20515;-67
2023/12/18 04:25:45;;;;;;;11.60;5.30;;;;;;;;;;4968643;28;20062;-67
2023/12/18 04:28:10;;;;;;;13.80;5.30;;;;;;;;;;4967960;28;20621;-67
2023/12/18 04:30:35;;;;;;;16.08;5.68;;;;;;;;;;4967720;28;20030;-67
2023/12/18 04:33:01;;;;;;;14.45;5.70;;;;;;;;;;4969253;28;20440;-67
2023/12/18 04:35:26;;;;;;;20.23;5.78;;;;;;;;;;4965693;28;20566;-67
2023/12/18 04:37:51;;;;;;;15.30;5.60;;;;;;;;;;4969304;28;20468;-67
2023/12/18 04:40:16;;;;;;;8.50;5.10;;;;;;;;;;4969141;28;20254;-67
2023/12/18 04:42:42;;;;;;;16.95;5.78;;;;;;;;;;4969186;28;20800;-68
2023/12/18 04:45:07;;;;;;;13.43;5.73;;;;;;;;;;4970057;28;20087;-67
2023/12/18 04:47:32;;;;;;;16.33;6.60;;;;;;;;;;4968099;28;20258;-67
2023/12/18 04:49:57;;;;;;;11.90;5.95;;;;;;;;;;4967831;28;20148;-67
2023/12/18 04:52:23;;;;;;;17.13;5.23;;;;;;;;;;4968624;28;20027;-67
2023/12/18 04:54:48;;;;;;;15.20;6.60;;;;;;;;;;4967940;28;20263;-67
2023/12/18 04:57:13;;;;;;;17.77;6.10;;;;;;;;;;4968544;28;20345;-67
2023/12/18 04:59:38;;;;;;;11.77;6.13;;;;;;;;;;4968670;28;20795;-68
2023/12/18 05:02:03;;;;;;;18.45;5.55;;;;;;;;;;4967958;28;20310;-67
2023/12/18 05:04:29;;;;;;;15.82;5.43;;;;;;;;;;4967512;28;20023;-67
2023/12/18 05:06:54;;;;;;;19.52;6.20;;;;;;;;;;4967678;28;20388;-67
2023/12/18 05:09:19;;;;;;;12.75;5.20;;;;;;;;;;4968936;28;20030;-67
2023/12/18 05:11:44;;;;;;;11.00;5.40;;;;;;;;;;4970899;28;20026;-67
2023/12/18 05:14:09;;;;;;;13.57;5.23;;;;;;;;;;4968320;28;20034;-68
2023/12/18 05:16:34;;;;;;;18.13;6.40;;;;;;;;;;4968895;28;20282;-67
2023/12/18 05:19:00;;;;;;;14.23;5.67;;;;;;;;;;5006862;28;20277;-67
2023/12/18 05:21:25;;;;;;;12.73;5.57;;;;;;;;;;4980928;28;20291;-68
2023/12/18 05:23:51;;;;;;;11.50;5.53;;;;;;;;;;4990838;28;20062;-68
2023/12/18 05:26:16;;;;;;;10.30;5.38;;;;;;;;;;5005495;28;20347;-67
2023/12/18 05:28:41;;;;;;;17.23;6.07;;;;;;;;;;4975164;28;20090;-68
2023/12/18 05:31:10;;;;;;;15.73;6.25;;;;;;;;;;4969888;28;20054;-68
2023/12/18 05:33:35;;;;;;;21.63;6.13;;;;;;;;;;5020426;28;20036;-68
2023/12/18 05:36:00;;;;;;;24.88;6.43;;;;;;;;;;4985654;28;20023;-68
2023/12/18 05:38:25;;;;;;;14.00;6.45;;;;;;;;;;4965993;28;20481;-68
2023/12/18 05:40:50;;;;;;;12.17;6.00;;;;;;;;;;5006227;28;20043;-68
2023/12/18 05:43:16;;;;;;;14.23;5.80;;;;;;;;;;5004162;28;20711;-67
2023/12/18 05:45:41;;;;;;;13.48;5.40;;;;;;;;;;4968048;28;20284;-68
2023/12/18 05:48:06;;;;;;;13.20;5.47;;;;;;;;;;4978414;28;20038;-67
2023/12/18 05:50:32;;;;;;;9.85;5.15;;;;;;;;;;5004736;28;20083;-67
2023/12/18 05:52:57;;;;;;;17.23;6.18;;;;;;;;;;4967353;28;20044;-67
2023/12/18 05:55:22;;;;;;;13.07;5.90;;;;;;;;;;4969459;28;20026;-67
2023/12/18 05:57:48;;;;;;;15.60;5.88;;;;;;;;;;5005552;28;20285;-68
2023/12/18 06:00:13;;;;;;;16.00;6.00;;;;;;;;;;4968572;28;20054;-67
2023/12/18 06:02:38;;;;;;;13.02;5.68;;;;;;;;;;4966762;28;20286;-68
2023/12/18 06:05:04;;;;;;;18.67;6.43;;;;;;;;;;4967837;28;20080;-68
2023/12/18 06:07:29;;;;;;;12.95;5.68;;;;;;;;;;4968101;28;20339;-69
2023/12/18 06:09:54;;;;;;;11.45;6.03;;;;;;;;;;4967129;28;20073;-69
2023/12/18 06:12:20;;;;;;;13.43;5.97;;;;;;;;;;4966815;28;20023;-69
2023/12/18 06:14:45;;;;;;;13.50;6.20;;;;;;;;;;4967438;28;20049;-69
2023/12/18 06:17:10;;;;;;;10.98;5.78;;;;;;;;;;4968027;28;20489;-69
2023/12/18 06:19:35;;;;;;;10.07;4.88;;;;;;;;;;4969027;28;20033;-69
2023/12/18 06:22:03;;;;;;;12.20;5.30;;;;;;;;;;4970226;28;20481;-69
2023/12/18 06:24:29;;;;;;;15.38;6.07;;;;;;;;;;4969603;28;20118;-69
2023/12/18 06:26:54;;;;;;;16.52;6.43;;;;;;;;;;4971234;28;20552;-69
2023/12/18 06:29:19;;;;;;;19.58;6.15;;;;;;;;;;4970880;28;20030;-68
2023/12/18 06:31:45;;;;;;;14.43;5.88;;;;;;;;;;4971222;28;20026;-69
2023/12/18 06:34:11;;;;;;;12.88;6.10;;;;;;;;;;4971571;28;20122;-68
2023/12/18 06:36:36;;;;;;;16.60;6.13;;;;;;;;;;4970900;28;20444;-69
2023/12/18 06:39:01;;;;;;;13.95;6.07;;;;;;;;;;4971275;28;20104;-69
2023/12/18 06:41:27;;;;;;;12.20;6.07;;;;;;;;;;4970795;28;20048;-69
2023/12/18 06:43:52;;;;;;;16.70;5.43;;;;;;;;;;4969874;28;20034;-70
2023/12/18 06:46:17;;;;;;;13.40;5.43;;;;;;;;;;4972998;28;20278;-69
2023/12/18 06:48:42;;;;;;;21.50;7.28;;;;;;;;;;4970503;28;20387;-69
2023/12/18 06:51:10;;;;;;;15.17;6.23;;;;;;;;;;4969109;28;20019;-69
2023/12/18 06:53:35;;;;;;;15.93;6.65;;;;;;;;;;4968775;28;20282;-69
2023/12/18 06:56:01;;;;;;;18.52;6.75;;;;;;;;;;5003892;28;20481;-69
2023/12/18 06:58:26;;;;;;;13.60;5.53;;;;;;;;;;4971827;28;20674;-70
2023/12/18 07:00:51;;;;;;;14.32;7.50;;;;;;;;;;4969219;28;20033;-69
2023/12/18 07:03:16;;;;;;;23.35;6.82;;;;;;;;;;4969493;28;20037;-69
2023/12/18 07:05:42;;;;;;;41.67;12.20;;;;;;;;;;4984284;28;20018;-69
2023/12/18 07:08:07;;;;;;;46.88;13.82;;;;;;;;;;4970913;28;20273;-69
2023/12/18 07:10:32;;;;;;;27.15;8.88;;;;;;;;;;4982614;28;20393;-69
2023/12/18 07:12:57;;;;;;;25.97;9.60;;;;;;;;;;5005349;28;20023;-69
2023/12/18 07:15:24;;;;;;;33.58;11.98;;;;;;;;;;4969021;28;20290;-69
2023/12/18 07:17:49;;;;;;;32.03;10.18;;;;;;;;;;5000442;28;20022;-70
2023/12/18 07:20:14;;;;;;;31.02;10.00;;;;;;;;;;4972520;28;20096;-69
2023/12/18 07:22:41;;;;;;;33.95;9.98;;;;;;;;;;4971514;28;20545;-67
2023/12/18 07:25:09;;;;;;;28.40;9.30;;;;;;;;;;4969730;28;20428;-69
2023/12/18 07:27:34;;;;;;;30.45;10.80;;;;;;;;;;4983381;28;20022;-69
2023/12/18 07:29:59;;;;;;;28.92;10.15;;;;;;;;;;4970651;28;20027;-70
2023/12/18 07:32:24;;;;;;;18.45;7.03;;;;;;;;;;4973131;28;20090;-69
2023/12/18 07:34:50;;;;;;;38.30;13.33;;;;;;;;;;4970388;28;20378;-67
2023/12/18 07:37:15;;;;;;;24.23;8.13;;;;;;;;;;4970377;28;20285;-67
2023/12/18 07:39:40;;;;;;;23.17;7.85;;;;;;;;;;4999009;28;20767;-69
2023/12/18 07:42:05;;;;;;;20.65;6.55;;;;;;;;;;4972093;28;20381;-69
2023/12/18 07:44:30;;;;;;;14.05;6.03;;;;;;;;;;5001813;28;20030;-69
2023/12/18 07:46:56;;;;;;;15.10;6.07;;;;;;;;;;5022197;28;20024;-69
2023/12/18 07:49:22;;;;;;;14.05;6.28;;;;;;;;;;4998904;28;20830;-69
2023/12/18 07:51:47;;;;;;;17.50;6.72;;;;;;;;;;5020551;28;20352;-67
2023/12/18 07:54:14;;;;;;;13.07;6.22;;;;;;;;;;4981402;28;20170;-70
2023/12/18 07:56:39;;;;;;;16.02;6.20;;;;;;;;;;4985462;28;20033;-67
2023/12/18 07:59:05;;;;;;;17.20;6.53;;;;;;;;;;5039671;28;20017;-67
2023/12/18 08:01:30;;;;;;;14.32;6.47;;;;;;;;;;5000081;28;20513;-67
2023/12/18 08:03:55;;;;;;;25.73;6.38;;;;;;;;;;4968074;28;20049;-67
2023/12/18 08:06:20;;;;;;;14.10;6.47;;;;;;;;;;4982271;28;20022;-67
2023/12/18 08:08:45;;;;;;;26.85;7.90;;;;;;;;;;4996843;28;20542;-68
2023/12/18 08:11:11;;;;;;;26.90;7.83;;;;;;;;;;4969627;28;20397;-68
2023/12/18 08:13:38;;;;;;;18.30;7.32;;;;;;;;;;4970505;28;20254;-68
2023/12/18 08:16:06;;;;;;;15.43;7.40;;;;;;;;;;4970657;28;20503;-68
2023/12/18 08:18:32;;;;;;;21.42;7.90;;;;;;;;;;4966608;28;20045;-68
2023/12/18 08:20:57;;;;;;;19.02;7.45;;;;;;;;;;4970161;28;20477;-68
2023/12/18 08:23:22;;;;;;;16.75;7.13;;;;;;;;;;4970814;28;20073;-68
2023/12/18 08:25:47;;;;;;;20.93;7.73;;;;;;;;;;4965891;28;20030;-68
2023/12/18 08:28:12;;;;;;;19.17;7.63;;;;;;;;;;4970397;28;20258;-68
2023/12/18 08:30:38;;;;;;;15.35;6.32;;;;;;;;;;4969037;28;20610;-68
2023/12/18 08:33:03;;;;;;;16.02;6.80;;;;;;;;;;4970737;28;20393;-68
2023/12/18 08:35:28;;;;;;;12.98;6.20;;;;;;;;;;4972242;28;20022;-68
2023/12/18 08:37:53;;;;;;;14.47;6.10;;;;;;;;;;4989456;28;20029;-69
2023/12/18 08:40:18;;;;;;;15.40;6.57;;;;;;;;;;4971430;28;20361;-68
2023/12/18 08:42:43;;;;;;;21.17;8.40;;;;;;;;;;4993082;28;20367;-68
2023/12/18 08:45:09;;;;;;;16.27;7.23;;;;;;;;;;4969824;28;20277;-68
2023/12/18 08:47:34;;;;;;;16.98;6.72;;;;;;;;;;4968909;28;20322;-68
2023/12/18 08:49:59;;;;;;;11.57;6.90;;;;;;;;;;4999089;28;20017;-68
2023/12/18 08:52:24;;;;;;;20.73;7.32;;;;;;;;;;4995689;28;20753;-68
2023/12/18 08:54:49;;;;;;;13.73;5.37;;;;;;;;;;4972833;28;20354;-68
2023/12/18 08:57:15;;;;;;;14.82;5.75;;;;;;;;;;5015003;28;20275;-68
2023/12/18 08:59:40;;;;;;;13.83;6.97;;;;;;;;;;4968813;28;20580;-69
2023/12/18 09:02:05;;;;;;;23.63;10.77;;;;;;;;;;4990569;28;20304;-68
2023/12/18 09:04:30;;;;;;;30.02;13.02;;;;;;;;;;4992848;28;20255;-68
2023/12/18 09:06:55;;;;;;;20.37;9.13;;;;;;;;;;4972145;28;20448;-68
2023/12/18 09:09:20;;;;;;;24.20;9.35;;;;;;;;;;4967475;28;20261;-69
2023/12/18 09:11:46;;;;;;;18.35;7.97;;;;;;;;;;4980331;28;20122;-68
2023/12/18 09:14:11;;;;;;;19.17;6.82;;;;;;;;;;5002066;28;20033;-68
2023/12/18 09:16:36;;;;;;;15.45;7.88;;;;;;;;;;5015389;28;20098;-68
2023/12/18 09:19:02;;;;;;;17.33;7.63;;;;;;;;;;4993658;28;20037;-68
2023/12/18 09:21:27;;;;;;;12.77;6.05;;;;;;;;;;4996612;28;20327;-69
2023/12/18 09:23:52;;;;;;;14.07;6.85;;;;;;;;;;4971288;28;20038;-68
2023/12/18 09:26:18;;;;;;;10.87;5.87;;;;;;;;;;4973202;28;20029;-68
2023/12/18 09:28:43;;;;;;;12.68;6.50;;;;;;;;;;4985925;28;20274;-68
2023/12/18 09:31:08;;;;;;;12.82;6.50;;;;;;;;;;4970739;28;20022;-68
2023/12/18 09:33:34;;;;;;;10.18;6.15;;;;;;;;;;4971770;28;20026;-68
2023/12/18 09:35:59;;;;;;;15.43;5.90;;;;;;;;;;4973003;28;20025;-68
2023/12/18 09:38:24;;;;;;;14.20;6.38;;;;;;;;;;4968505;28;20034;-68
2023/12/18 09:40:50;;;;;;;11.57;6.22;;;;;;;;;;4969602;28;20475;-68
2023/12/18 09:43:16;;;;;;;11.43;5.97;;;;;;;;;;4973488;28;20046;-68
2023/12/18 09:45:42;;;;;;;12.75;5.45;;;;;;;;;;4988039;28;20796;-68
2023/12/18 09:48:08;;;;;;;14.05;6.32;;;;;;;;;;4989627;28;20081;-68
2023/12/18 09:50:33;;;;;;;15.10;6.28;;;;;;;;;;4963702;28;20027;-68
2023/12/18 09:52:58;;;;;;;14.53;6.03;;;;;;;;;;4965354;28;20031;-68
2023/12/18 09:55:24;;;;;;;11.73;5.65;;;;;;;;;;4962163;28;20289;-68
2023/12/18 09:57:53;;;;;;;15.50;6.00;;;;;;;;;;4972377;28;20038;-68
2023/12/18 10:00:20;;;;;;;9.82;3.40;;;;;;;;;;4980377;28;20025;-68
2023/12/18 10:02:45;;;;;;;21.30;6.88;;;;;;;;;;4968328;28;20031;-68
2023/12/18 10:05:10;;;;;;;22.08;6.07;;;;;;;;;;4968387;28;20027;-68
2023/12/18 10:07:35;;;;;;;12.30;6.17;;;;;;;;;;4967947;28;20026;-68
2023/12/18 10:10:02;;;;;;;16.35;7.25;;;;;;;;;;4999354;28;20491;-69
2023/12/18 10:12:27;;;;;;;23.95;8.15;;;;;;;;;;4996196;28;20534;-68
2023/12/18 10:14:52;;;;;;;18.13;8.23;;;;;;;;;;4985336;28;20027;-69
2023/12/18 10:17:18;;;;;;;9.47;4.13;;;;;;;;;;4970882;28;20384;-70
2023/12/18 10:19:43;;;;;;;20.17;6.03;;;;;;;;;;4970015;28;20255;-68
2023/12/18 10:22:09;;;;;;;16.65;6.78;;;;;;;;;;4968460;28;20093;-68
2023/12/18 10:24:39;;;;;;;14.25;7.10;;;;;;;;;;4973044;28;20026;-69
2023/12/18 10:27:04;;;;;;;;;;;;;;;;;;4972135;28;20018;-68
2023/12/18 10:29:29;;;;;;;14.95;6.15;;;;;;;;;;4970534;28;19920;-68
2023/12/18 10:31:55;;;;;;;19.98;6.75;;;;;;;;;;4998707;28;20022;-68
2023/12/18 10:34:20;;;;;;;17.58;7.20;;;;;;;;;;4993665;28;20029;-68
2023/12/18 10:36:45;;;;;;;15.27;7.50;;;;;;;;;;4972438;28;20030;-67
2023/12/18 10:39:13;;;;;;;15.98;7.55;;;;;;;;;;5006185;28;20036;-67
2023/12/18 10:41:40;;;;;;;21.67;10.73;;;;;;;;;;4987858;28;20031;-67
2023/12/18 10:44:07;;;;;;;18.30;8.52;;;;;;;;;;4974785;28;20057;-67
2023/12/18 10:46:33;;;;;;;20.17;9.45;;;;;;;;;;4974067;28;20454;-67
2023/12/18 10:48:59;;;;;;;21.35;9.25;;;;;;;;;;4969423;28;20141;-67
2023/12/18 10:51:24;;;;;;;17.15;8.65;;;;;;;;;;4970214;28;20101;-67
2023/12/18 10:53:51;;;;;;;20.95;8.85;;;;;;;;;;4972326;28;20046;-67
2023/12/18 10:56:17;;;;;;;21.58;10.35;;;;;;;;;;4979596;28;20442;-67
2023/12/18 10:58:42;;;;;;;21.20;10.63;;;;;;;;;;4975715;28;20374;-67
2023/12/18 11:01:09;;;;;;;26.48;10.02;;;;;;;;;;4981224;28;20019;-67
2023/12/18 11:03:36;;;;;;;29.85;14.00;;;;;;;;;;4972213;28;20037;-67
2023/12/18 11:06:01;;;;;;;24.38;10.93;;;;;;;;;;4986887;28;20361;-67
2023/12/18 11:08:26;;;;;;;20.00;10.38;;;;;;;;;;4978643;28;20017;-67
2023/12/18 11:10:53;;;;;;;22.20;9.50;;;;;;;;;;4978798;28;20047;-68
2023/12/18 11:13:28;;;;;;;19.63;10.30;;;;;;;;;;4983410;28;20019;-67
2023/12/18 11:16:12;;;;;;;18.73;9.40;;;;;;;;;;4984756;28;20027;-67
2023/12/18 11:18:46;;;;;;;20.08;11.10;;;;;;;;;;4971547;28;20031;-67
2023/12/18 11:21:11;;;;;;;26.95;11.48;;;;;;;;;;4972210;28;20463;-67
2023/12/18 11:23:39;;;;;;;23.20;11.57;;;;;;;;;;4980691;28;20015;-67
2023/12/18 11:26:05;;;;;;;27.95;13.80;;;;;;;;;;4970915;28;20019;-67
2023/12/18 11:28:30;;;;;;;30.98;13.90;;;;;;;;;;4972432;28;20117;-67
2023/12/18 11:31:02;;;;;;;27.48;13.65;;;;;;;;;;4975275;28;20015;-67
2023/12/18 11:33:28;;;;;;;23.55;12.40;;;;;;;;;;4971679;28;20049;-67
2023/12/18 11:35:55;;;;;;;24.17;12.73;;;;;;;;;;4979161;28;20489;-66
2023/12/18 11:38:20;;;;;;;24.63;12.50;;;;;;;;;;4971449;28;20027;-67
2023/12/18 11:40:48;;;;;;;27.90;12.45;;;;;;;;;;5006449;28;20033;-67
2023/12/18 11:43:26;;;;;;;25.63;12.65;;;;;;;;;;4983105;28;20011;-67
2023/12/18 11:45:58;;;;;;;25.92;11.63;;;;;;;;;;4976669;28;20070;-67
2023/12/18 11:48:23;;;;;;;30.00;12.20;;;;;;;;;;4981191;28;20413;-67
2023/12/18 11:50:48;;;;;;;26.85;13.50;;;;;;;;;;4975154;28;20058;-67
2023/12/18 11:53:20;;;;;;;34.17;13.50;;;;;;;;;;4975246;28;20485;-67
2023/12/18 11:55:45;;;;;;;33.00;13.25;;;;;;;;;;4986989;28;20247;-67
2023/12/18 11:58:10;;;;;;;30.20;11.53;;;;;;;;;;4975830;28;20091;-67
2023/12/18 12:00:36;;;;;;;27.03;13.03;;;;;;;;;;4981457;28;20262;-67
2023/12/18 12:03:02;;;;;;;25.67;12.75;;;;;;;;;;4979061;28;20284;-67
2023/12/18 12:05:28;;;;;;;26.88;13.25;;;;;;;;;;4981772;28;20114;-67
2023/12/18 12:07:53;;;;;;;29.73;13.07;;;;;;;;;;4987405;28;20077;-67
2023/12/18 12:10:19;;;;;;;25.55;12.30;;;;;;;;;;4985463;28;20019;-67
2023/12/18 12:12:44;;;;;;;29.58;12.77;;;;;;;;;;4976890;28;20018;-67
2023/12/18 12:15:10;;;;;;;24.13;12.23;;;;;;;;;;4983867;28;20018;-67
2023/12/18 12:17:36;;;;;;;29.92;12.90;;;;;;;;;;4979387;28;20023;-67
2023/12/18 12:20:01;;;;;;;23.30;12.73;;;;;;;;;;4982872;28;20171;-67
2023/12/18 12:22:28;;;;;;;27.47;13.57;;;;;;;;;;4980394;28;20362;-67
2023/12/18 12:24:53;;;;;;;27.08;12.55;;;;;;;;;;4972984;28;20377;-67
2023/12/18 12:27:18;;;;;;;30.03;12.80;;;;;;;;;;4972809;28;20517;-67
2023/12/18 12:29:43;;;;;;;29.92;13.13;;;;;;;;;;4977365;28;20262;-67
2023/12/18 12:32:10;;;;;;;32.90;14.93;;;;;;;;;;4979524;28;20589;-67
2023/12/18 12:34:36;;;;;;;35.55;14.82;;;;;;;;;;4974224;28;20270;-67
2023/12/18 12:37:02;;;;;;;27.42;13.82;;;;;;;;;;4972658;28;20026;-67
2023/12/18 12:39:27;;;;;;;31.50;15.95;;;;;;;;;;4973980;28;20029;-67
2023/12/18 12:41:52;;;;;;;30.93;14.30;;;;;;;;;;4973334;28;20027;-67
2023/12/18 12:44:18;;;;;;;28.13;14.60;;;;;;;;;;4992872;28;20783;-67
2023/12/18 12:46:43;;;;;;;35.35;15.95;;;;;;;;;;4977714;28;20292;-67
2023/12/18 12:49:11;;;;;;;30.77;15.93;;;;;;;;;;4980168;28;20088;-67
2023/12/18 12:51:37;;;;;;;31.52;15.63;;;;;;;;;;4972136;28;20081;-67
2023/12/18 12:54:04;;;;;;;42.85;14.48;;;;;;;;;;4977417;28;20030;-67
2023/12/18 12:56:29;;;;;;;30.65;14.40;;;;;;;;;;4982193;28;20029;-67
2023/12/18 12:58:55;;;;;;;30.95;16.58;;;;;;;;;;4981942;28;20022;-67
2023/12/18 13:01:20;;;;;;;33.08;15.68;;;;;;;;;;4974009;28;20030;-67
2023/12/18 13:03:48;;;;;;;37.40;16.23;;;;;;;;;;4977651;28;20203;-67
2023/12/18 13:06:14;;;;;;;37.20;15.95;;;;;;;;;;4975525;28;20261;-67
2023/12/18 13:08:39;;;;;;;38.78;16.10;;;;;;;;;;4969198;28;20023;-67
2023/12/18 13:11:06;;;;;;;34.25;15.85;;;;;;;;;;4986247;28;20358;-67
2023/12/18 13:13:31;;;;;;;30.92;15.27;;;;;;;;;;4975031;28;20084;-66
2023/12/18 13:15:59;;;;;;;35.97;16.07;;;;;;;;;;4980443;28;20022;-67
2023/12/18 13:18:24;;;;;;;31.23;15.25;;;;;;;;;;4973666;28;20318;-67
2023/12/18 13:20:49;;;;;;;32.40;14.70;;;;;;;;;;4973105;28;20023;-67
2023/12/18 13:23:15;;;;;;;31.05;15.05;;;;;;;;;;4987685;28;20648;-67
2023/12/18 13:25:40;;;;;;;38.90;16.65;;;;;;;;;;4975007;28;20030;-67
2023/12/18 13:28:05;;;;;;;40.05;15.73;;;;;;;;;;4970402;28;20033;-67
2023/12/18 13:30:30;;;;;;;43.20;15.97;;;;;;;;;;4972946;28;20022;-67
2023/12/18 13:32:55;;;;;;;30.87;14.80;;;;;;;;;;4979445;28;20788;-67
2023/12/18 13:35:22;;;;;;;43.03;13.23;;;;;;;;;;4976570;28;20331;-67
2023/12/18 13:37:47;;;;;;;29.38;14.07;;;;;;;;;;4968519;28;20293;-67
2023/12/18 13:40:12;;;;;;;29.73;14.32;;;;;;;;;;4971446;28;20030;-67
2023/12/18 13:42:37;;;;;;;28.53;13.70;;;;;;;;;;4974714;28;20045;-67
2023/12/18 13:45:03;;;;;;;24.20;11.73;;;;;;;;;;4982619;28;20268;-67
2023/12/18 13:47:28;;;;;;;32.33;14.25;;;;;;;;;;4971479;28;20644;-67
2023/12/18 13:49:54;;;;;;;24.23;12.38;;;;;;;;;;4971462;28;20023;-67
2023/12/18 13:52:19;;;;;;;25.90;11.80;;;;;;;;;;4970348;28;20052;-67
2023/12/18 13:54:45;;;;;;;25.80;11.38;;;;;;;;;;4971601;28;20274;-67
2023/12/18 13:57:10;;;;;;;22.02;11.88;;;;;;;;;;4972898;28;20019;-67
2023/12/18 13:59:35;;;;;;;23.33;9.07;;;;;;;;;;4972248;28;20031;-67
2023/12/18 14:02:00;;;;;;;31.63;10.07;;;;;;;;;;4972149;28;20110;-67
2023/12/18 14:04:26;;;;;;;23.92;10.85;;;;;;;;;;4968944;28;20759;-67
2023/12/18 14:06:51;;;;;;;21.05;10.27;;;;;;;;;;4972118;28;20034;-67
2023/12/18 14:09:16;;;;;;;19.15;8.82;;;;;;;;;;4972407;28;20065;-67
2023/12/18 14:11:41;;;;;;;21.30;9.97;;;;;;;;;;4970936;28;20495;-67
2023/12/18 14:14:06;;;;;;;25.73;9.25;;;;;;;;;;4974530;28;20407;-68
2023/12/18 14:16:32;;;;;;;21.83;10.07;;;;;;;;;;4971571;28;20015;-67